Sandwich, Illinois
Current Conditions -  °F | °C
As of 6:52 PM on Monday 22 Dec 2014 (Local Time) from KARR Reporting Station
Haze Haze  
Wind Chill: 35°   Ceiling: 600
Heat Index: 42°   Visibility: 2.5mi
Dew Point: 39°   Wind: 14mph
Humidity: 89%   Direction: 130°SE
Pressure: 29.64"   Gusts: NA
Location:  41.65°N, 88.62°W
Report Text: KARR 230052Z 13012KT 2 1/2SM BR OVC006 06/04 A2964 RMK AO2 RAE52 SLP043 P0005 T00560039
Loading
Personal Weather Stations






























Interactive Weather Map New forecast layout! Learn more

10-Day Weather Forecast

Advertisements
Track Severe Weather on mobile